createdAt,value
2023-02-24T00:01:09.178Z,4.21
2023-02-24T00:06:16.825Z,4.22
2023-02-24T00:11:24.713Z,4.31
2023-02-24T00:16:32.735Z,4.28
2023-02-24T00:21:40.956Z,4.23
2023-02-24T00:26:54.572Z,4.18
2023-02-24T00:32:07.351Z,4.09
2023-02-24T00:37:16.641Z,4.04
2023-02-24T00:42:24.519Z,4.06
2023-02-24T00:47:34.047Z,4.08
2023-02-24T00:52:41.931Z,4.14
2023-02-24T00:57:51.082Z,4.11
2023-02-24T01:02:59.775Z,4.02
2023-02-24T01:08:08.529Z,3.98
2023-02-24T01:13:16.518Z,3.97
2023-02-24T01:18:25.577Z,4.01
2023-02-24T01:23:33.939Z,4.02
2023-02-24T01:28:42.173Z,3.98
2023-02-24T01:33:50.450Z,3.92
2023-02-24T01:38:58.516Z,3.89
2023-02-24T01:44:10.729Z,3.92
2023-02-24T01:49:22.476Z,4.00
2023-02-24T01:54:34.575Z,4.09
2023-02-24T01:59:42.295Z,4.13
2023-02-24T02:04:55.129Z,4.18
2023-02-24T02:10:04.725Z,4.20
2023-02-24T02:15:14.982Z,4.25
2023-02-24T02:20:49.346Z,4.25
2023-02-24T02:26:14.255Z,4.19
2023-02-24T02:31:57.663Z,4.18
2023-02-24T02:37:12.374Z,4.24
2023-02-24T02:42:30.354Z,4.31
2023-02-24T02:47:43.600Z,4.34
2023-02-24T02:52:57.664Z,4.38
2023-02-24T02:58:09.432Z,4.40
2023-02-24T03:03:20.128Z,4.35
2023-02-24T03:08:31.348Z,4.31
2023-02-24T03:13:46.752Z,4.34
2023-02-24T03:19:01.671Z,4.43
2023-02-24T03:24:11.018Z,4.51
2023-02-24T03:29:24.315Z,4.59
2023-02-24T03:34:45.035Z,4.66
2023-02-24T03:39:54.109Z,4.70
2023-02-24T03:45:02.030Z,4.74
2023-02-24T03:50:17.777Z,4.78
2023-02-24T03:55:38.157Z,4.82
2023-02-24T04:00:52.816Z,4.78
2023-02-24T04:06:11.222Z,4.76
2023-02-24T04:11:27.687Z,4.75
2023-02-24T04:16:44.914Z,4.76
2023-02-24T04:21:53.203Z,4.84
2023-02-24T04:27:03.995Z,4.94
2023-02-24T04:32:15.185Z,4.99
2023-02-24T04:37:23.418Z,5.07
2023-02-24T04:42:31.146Z,5.18
2023-02-24T04:47:38.765Z,5.25
2023-02-24T04:52:46.596Z,5.30
2023-02-24T04:57:55.765Z,5.36
2023-02-24T05:03:05.706Z,5.43
2023-02-24T05:08:16.357Z,5.55
2023-02-24T05:13:28.208Z,5.61
2023-02-24T05:18:38.314Z,5.64
2023-02-24T05:23:48.243Z,5.70
2023-02-24T05:28:59.993Z,5.74
2023-02-24T05:34:09.767Z,5.82
2023-02-24T05:39:20.155Z,5.92
2023-02-24T05:44:32.115Z,5.94
2023-02-24T05:49:40.147Z,5.92
2023-02-24T05:54:49.884Z,5.95
2023-02-24T05:59:57.791Z,6.01
2023-02-24T06:05:09.171Z,6.04
2023-02-24T06:10:17.395Z,6.07
2023-02-24T06:15:25.589Z,6.07
2023-02-24T06:20:34.813Z,6.08
2023-02-24T06:25:42.485Z,6.14
2023-02-24T06:30:50.890Z,6.21
2023-02-24T06:36:00.822Z,6.24
2023-02-24T06:41:11.326Z,6.28
2023-02-24T06:46:19.779Z,6.32
2023-02-24T06:51:30.829Z,6.38
2023-02-24T06:56:38.844Z,6.40
2023-02-24T07:01:47.532Z,6.36
2023-02-24T07:06:57.108Z,6.36
2023-02-24T07:12:07.133Z,6.38
2023-02-24T07:17:19.663Z,6.43
2023-02-24T07:22:27.067Z,6.48
2023-02-24T07:27:34.820Z,6.57
2023-02-24T07:32:43.144Z,6.64
2023-02-24T07:37:51.129Z,6.68
2023-02-24T07:42:59.162Z,6.71
2023-02-24T07:48:07.004Z,6.75
2023-02-24T07:53:16.835Z,6.83
2023-02-24T07:58:24.675Z,6.89
2023-02-24T08:03:33.551Z,6.92
2023-02-24T08:08:58.047Z,6.94
2023-02-24T08:14:11.102Z,6.97
2023-02-24T08:19:24.123Z,7.04
2023-02-24T08:24:35.870Z,7.17
2023-02-24T08:29:58.899Z,7.34
2023-02-24T08:35:15.142Z,7.47
2023-02-24T08:40:40.046Z,7.56
2023-02-24T08:45:51.755Z,7.63
2023-02-24T08:51:00.876Z,7.68
2023-02-24T08:56:12.980Z,7.74
2023-02-24T09:01:24.825Z,7.84
2023-02-24T09:06:44.490Z,7.94
2023-02-24T09:11:56.711Z,7.98
2023-02-24T09:17:11.782Z,8.00
2023-02-24T09:22:31.796Z,8.03
2023-02-24T09:27:42.609Z,8.06
2023-02-24T09:32:50.321Z,8.11
2023-02-24T09:37:58.731Z,8.17
2023-02-24T09:43:11.360Z,8.21
2023-02-24T09:48:24.812Z,8.29
2023-02-24T09:53:49.697Z,8.39
2023-02-24T09:59:10.568Z,8.45
2023-02-24T10:04:37.269Z,8.45
2023-02-24T10:09:51.276Z,8.46
2023-02-24T10:15:18.669Z,8.45
2023-02-24T10:20:40.215Z,8.41
2023-02-24T10:25:55.284Z,8.39
2023-02-24T10:31:15.212Z,8.39
2023-02-24T10:36:35.789Z,8.43
2023-02-24T10:41:49.704Z,8.46
2023-02-24T10:47:13.112Z,8.45
2023-02-24T10:52:37.283Z,8.40
2023-02-24T10:57:58.981Z,8.39
2023-02-24T11:03:22.129Z,8.47
2023-02-24T11:08:40.246Z,8.60
2023-02-24T11:14:09.853Z,8.67
2023-02-24T11:19:18.484Z,8.70
2023-02-24T11:24:26.774Z,8.81
2023-02-24T11:29:47.527Z,8.94
2023-02-24T11:35:00.282Z,9.09
2023-02-24T11:40:15.690Z,9.25
2023-02-24T11:45:35.963Z,9.39
2023-02-24T11:50:47.160Z,9.61
2023-02-24T11:56:00.145Z,9.84
2023-02-24T12:01:16.464Z,10.00
2023-02-24T12:06:31.350Z,10.12
2023-02-24T12:11:44.852Z,10.19
2023-02-24T12:16:59.631Z,10.25
2023-02-24T12:22:16.442Z,10.28
2023-02-24T12:27:39.709Z,10.28
2023-02-24T12:33:01.945Z,10.30
2023-02-24T12:38:20.270Z,10.33
2023-02-24T12:43:36.779Z,10.33
2023-02-24T12:49:10.767Z,10.34
2023-02-24T12:54:24.917Z,10.33
2023-02-24T12:59:39.891Z,10.32
2023-02-24T13:04:57.400Z,10.31
2023-02-24T13:10:18.419Z,10.27
2023-02-24T13:15:28.647Z,10.15
2023-02-24T13:20:38.668Z,9.82
2023-02-24T13:25:54.113Z,9.47
2023-02-24T13:31:03.705Z,9.28
2023-02-24T13:36:15.383Z,9.20
2023-02-24T13:41:38.192Z,9.25
2023-02-24T13:46:59.309Z,9.37
2023-02-24T13:52:16.116Z,9.47
2023-02-24T13:57:50.135Z,9.45
2023-02-24T14:02:59.265Z,9.42
2023-02-24T14:08:08.161Z,9.41
2023-02-24T14:13:21.608Z,9.45
2023-02-24T14:18:31.118Z,9.46
2023-02-24T14:28:33.741Z,9.57
2023-02-24T14:33:44.045Z,9.57
2023-02-24T14:39:04.839Z,9.58
2023-02-24T14:44:22.460Z,9.58
2023-02-24T14:49:32.759Z,9.59
2023-02-24T14:54:47.452Z,9.60
2023-02-24T14:59:57.860Z,9.62
2023-02-24T15:05:06.113Z,9.61
2023-02-24T15:10:24.822Z,9.57
2023-02-24T15:15:38.972Z,9.54
2023-02-24T15:20:46.567Z,9.52
2023-02-24T15:25:54.470Z,9.51
2023-02-24T15:31:11.147Z,9.41
2023-02-24T15:36:23.735Z,9.19
2023-02-24T15:41:41.730Z,8.93
2023-02-24T15:46:49.919Z,8.62
2023-02-24T15:52:01.733Z,8.35
2023-02-24T15:57:12.487Z,8.07
2023-02-24T16:02:21.728Z,7.89
2023-02-24T16:07:33.766Z,7.78
2023-02-24T16:12:50.117Z,7.69
2023-02-24T16:17:59.413Z,7.61
2023-02-24T16:23:07.759Z,7.56
2023-02-24T16:28:17.627Z,7.51
2023-02-24T16:33:25.951Z,7.43
2023-02-24T16:38:34.092Z,7.37
2023-02-24T16:43:41.859Z,7.33
2023-02-24T16:48:53.434Z,7.32
2023-02-24T17:05:44.360Z,7.38
2023-02-24T17:10:50.589Z,7.42
2023-02-24T17:15:56.807Z,7.43
2023-02-24T17:21:02.169Z,7.37
2023-02-24T17:26:06.848Z,7.34
2023-02-24T17:31:12.495Z,7.36
2023-02-24T17:36:17.278Z,7.36
2023-02-24T17:41:21.511Z,7.37
2023-02-24T17:46:26.306Z,7.35
2023-02-24T17:51:31.450Z,7.34
2023-02-24T17:56:36.062Z,7.29
2023-02-24T18:01:40.485Z,7.23
2023-02-24T18:06:45.628Z,7.20
2023-02-24T18:11:50.199Z,7.20
2023-02-24T18:16:54.584Z,7.16
2023-02-24T18:21:59.288Z,7.14
2023-02-24T18:30:36.543Z,7.12
2023-02-24T18:35:44.247Z,7.10
2023-02-24T18:41:00.459Z,7.05
2023-02-24T18:46:12.199Z,6.97
2023-02-24T18:51:23.136Z,6.90
2023-02-24T18:56:32.649Z,6.84
2023-02-24T19:01:41.487Z,6.78
2023-02-24T19:06:49.287Z,6.74
2023-02-24T19:11:56.781Z,6.71
2023-02-24T19:17:04.978Z,6.63
2023-02-24T19:28:04.504Z,6.49
2023-02-24T19:33:12.209Z,6.48
2023-02-24T19:38:21.649Z,6.49
2023-02-24T19:43:29.254Z,6.46
2023-02-24T19:48:36.997Z,6.49
2023-02-24T19:53:44.799Z,6.50
2023-02-24T19:58:55.775Z,6.49
2023-02-24T20:04:05.539Z,6.43
2023-02-24T20:09:16.017Z,6.35
2023-02-24T20:14:23.655Z,6.31
2023-02-24T20:19:33.533Z,6.32
2023-02-24T20:24:41.221Z,6.30
2023-02-24T20:29:50.732Z,6.22
2023-02-24T20:35:00.743Z,6.18
2023-02-24T20:40:12.692Z,6.20
2023-02-24T20:45:21.082Z,6.25
2023-02-24T20:50:29.931Z,6.28
2023-02-24T20:55:38.978Z,6.27
2023-02-24T21:00:47.080Z,6.24
2023-02-24T21:06:08.825Z,6.21
2023-02-24T21:11:18.177Z,6.08
2023-02-24T21:16:27.231Z,5.95
2023-02-24T21:21:34.937Z,5.94
2023-02-24T21:26:42.706Z,5.91
2023-02-24T21:31:50.731Z,5.86
2023-02-24T21:36:59.532Z,5.89
2023-02-24T21:42:08.125Z,5.98
2023-02-24T21:47:16.447Z,6.05
2023-02-24T21:52:24.106Z,6.12
2023-02-24T21:57:31.895Z,6.16
2023-02-24T22:02:39.689Z,6.18
2023-02-24T22:07:48.084Z,6.16
2023-02-24T22:12:59.246Z,6.19
2023-02-24T22:18:07.653Z,6.21
2023-02-24T22:23:15.921Z,6.26
2023-02-24T22:28:23.717Z,6.32
2023-02-24T22:33:31.831Z,6.45
2023-02-24T22:38:40.676Z,6.60
2023-02-24T22:43:49.479Z,6.73
2023-02-24T22:48:59.085Z,6.85
2023-02-24T22:54:07.467Z,6.97
2023-02-24T22:59:16.183Z,7.10
2023-02-24T23:04:24.685Z,7.12
2023-02-24T23:09:32.908Z,7.12
2023-02-24T23:14:40.757Z,7.09
2023-02-24T23:19:48.351Z,7.04
2023-02-24T23:24:57.047Z,6.95
2023-02-24T23:30:06.792Z,6.85
2023-02-24T23:35:16.098Z,6.78
2023-02-24T23:40:26.457Z,6.71
2023-02-24T23:45:37.594Z,6.65
2023-02-24T23:50:46.315Z,6.64
2023-02-24T23:55:54.921Z,6.66
